createdAt,value
2023-02-09T00:00:08.940Z,110.03
2023-02-09T00:02:37.483Z,93.35
2023-02-09T00:05:04.180Z,75.35
2023-02-09T00:07:30.733Z,78.78
2023-02-09T00:09:57.246Z,90.00
2023-02-09T00:12:42.137Z,100.47
2023-02-09T00:15:08.983Z,112.28
2023-02-09T00:17:37.639Z,90.70
2023-02-09T00:20:06.292Z,103.90
2023-02-09T00:22:33.166Z,100.55
2023-02-09T00:24:59.773Z,94.45
2023-02-09T00:27:26.390Z,75.07
2023-02-09T00:29:52.916Z,119.40
2023-02-09T00:32:19.458Z,108.35
2023-02-09T00:34:46.003Z,88.28
2023-02-09T00:37:12.522Z,89.70
2023-02-09T00:39:39.036Z,98.07
2023-02-09T00:42:11.020Z,100.88
2023-02-09T00:44:40.174Z,96.72
2023-02-09T00:47:08.339Z,80.70
2023-02-09T00:49:35.152Z,74.03
2023-02-09T00:52:01.665Z,81.95
2023-02-09T00:54:28.319Z,109.85
2023-02-09T00:56:54.891Z,114.05
2023-02-09T00:59:21.415Z,122.07
2023-02-09T01:01:48.018Z,57.63
2023-02-09T01:04:14.644Z,94.20
2023-02-09T01:06:41.255Z,115.00
2023-02-09T01:09:07.938Z,114.03
2023-02-09T01:11:34.514Z,117.13
2023-02-09T01:14:01.314Z,124.78
2023-02-09T01:16:29.029Z,121.80
2023-02-09T01:18:56.135Z,114.03
2023-02-09T01:21:23.092Z,129.05
2023-02-09T01:23:49.864Z,124.30
2023-02-09T01:26:16.803Z,125.38
2023-02-09T01:28:44.208Z,128.23
2023-02-09T01:31:29.182Z,126.30
2023-02-09T01:33:57.676Z,126.05
2023-02-09T01:36:24.504Z,135.15
2023-02-09T01:38:51.440Z,135.05
2023-02-09T01:41:18.482Z,133.60
2023-02-09T01:43:58.484Z,117.10
2023-02-09T01:46:28.357Z,131.98
2023-02-09T01:49:09.593Z,138.05
2023-02-09T01:51:41.186Z,131.40
2023-02-09T01:54:10.904Z,134.63
2023-02-09T01:56:40.769Z,126.82
2023-02-09T01:59:08.212Z,134.85
2023-02-09T02:01:34.980Z,111.47
2023-02-09T02:04:02.141Z,102.80
2023-02-09T02:06:29.071Z,129.20
2023-02-09T02:09:01.103Z,112.07
2023-02-09T02:11:29.807Z,114.63
2023-02-09T02:13:57.209Z,115.13
2023-02-09T02:16:53.866Z,88.57
2023-02-09T02:19:39.493Z,93.20
2023-02-09T02:22:27.592Z,131.80
2023-02-09T02:25:35.142Z,128.40
2023-02-09T02:30:55.577Z,108.03
2023-02-09T02:33:46.669Z,68.90
2023-02-09T02:36:38.123Z,97.80
2023-02-09T02:39:16.298Z,94.85
2023-02-09T02:42:12.139Z,96.75
2023-02-09T02:44:42.981Z,90.72
2023-02-09T02:47:16.011Z,95.72
2023-02-09T02:49:50.457Z,72.28
2023-02-09T02:52:17.038Z,94.50
2023-02-09T02:55:07.986Z,90.53
2023-02-09T02:57:37.527Z,100.95
2023-02-09T03:00:10.841Z,95.72
2023-02-09T03:02:42.282Z,79.18
2023-02-09T03:05:10.092Z,67.97
2023-02-09T03:07:36.638Z,76.63
2023-02-09T03:10:25.526Z,86.88
2023-02-09T03:13:04.588Z,64.78
2023-02-09T03:15:58.779Z,65.78
2023-02-09T03:18:40.579Z,57.28
2023-02-09T03:21:35.902Z,55.47
2023-02-09T03:24:02.378Z,82.38
2023-02-09T03:26:36.890Z,78.65
2023-02-09T03:29:04.410Z,63.63
2023-02-09T03:31:32.300Z,62.70
2023-02-09T03:34:00.602Z,81.20
2023-02-09T03:36:33.392Z,60.53
2023-02-09T03:39:00.112Z,45.97
2023-02-09T03:41:26.619Z,64.70
2023-02-09T03:44:24.601Z,53.88
2023-02-09T03:46:51.288Z,76.93
2023-02-09T03:49:17.823Z,72.30
2023-02-09T03:51:44.370Z,93.38
2023-02-09T03:54:10.868Z,89.72
2023-02-09T03:56:37.718Z,88.72
2023-02-09T03:59:07.413Z,97.85
2023-02-09T04:01:33.951Z,80.20
2023-02-09T04:04:02.219Z,89.93
2023-02-09T04:06:31.265Z,71.15
2023-02-09T04:08:59.527Z,69.72
2023-02-09T04:11:26.822Z,81.10
2023-02-09T04:13:53.373Z,77.90
2023-02-09T04:16:19.957Z,67.47
2023-02-09T04:18:46.660Z,88.82
2023-02-09T04:21:13.612Z,96.50
2023-02-09T04:23:40.354Z,95.90
2023-02-09T04:26:06.980Z,75.05
2023-02-09T04:28:33.453Z,97.03
2023-02-09T04:30:59.972Z,95.05
2023-02-09T04:33:26.537Z,108.35
2023-02-09T04:35:53.329Z,108.00
2023-02-09T04:38:21.241Z,103.55
2023-02-09T04:40:49.049Z,106.32
2023-02-09T04:43:15.877Z,67.47
2023-02-09T04:45:43.258Z,104.28
2023-02-09T04:48:15.318Z,64.38
2023-02-09T04:50:45.537Z,62.75
2023-02-09T04:53:12.381Z,81.25
2023-02-09T04:55:40.237Z,95.13
2023-02-09T04:58:25.546Z,102.07
2023-02-09T05:00:55.212Z,86.47
2023-02-09T05:03:24.294Z,102.07
2023-02-09T05:05:54.732Z,70.75
2023-02-09T05:08:21.251Z,83.05
2023-02-09T05:10:47.965Z,81.35
2023-02-09T05:13:14.690Z,89.28
2023-02-09T05:15:41.161Z,72.82
2023-02-09T05:18:07.671Z,88.95
2023-02-09T05:20:34.636Z,110.05
2023-02-09T05:23:01.092Z,85.10
2023-02-09T05:25:27.606Z,66.53
2023-02-09T05:27:54.340Z,63.05
2023-02-09T05:30:20.853Z,96.63
2023-02-09T05:32:47.661Z,80.97
2023-02-09T05:35:14.727Z,66.97
2023-02-09T05:37:41.262Z,83.88
2023-02-09T05:40:08.548Z,79.93
2023-02-09T05:42:35.018Z,73.82
2023-02-09T05:45:01.621Z,118.25
2023-02-09T05:47:28.086Z,103.53
2023-02-09T05:49:54.621Z,97.35
2023-02-09T05:52:22.316Z,83.55
2023-02-09T05:54:49.464Z,91.57
2023-02-09T05:57:17.343Z,69.90
2023-02-09T05:59:43.961Z,87.82
2023-02-09T06:02:11.364Z,69.00
2023-02-09T06:04:37.989Z,84.97
2023-02-09T06:07:04.917Z,53.22
2023-02-09T06:09:31.467Z,83.70
2023-02-09T06:11:57.945Z,79.68
2023-02-09T06:14:24.470Z,53.58
2023-02-09T06:16:51.002Z,94.45
2023-02-09T06:19:20.362Z,67.57
2023-02-09T06:21:46.926Z,74.53
2023-02-09T06:24:14.931Z,82.95
2023-02-09T06:26:41.682Z,68.55
2023-02-09T06:29:09.407Z,77.82
2023-02-09T06:31:37.334Z,66.25
2023-02-09T06:34:05.840Z,52.00
2023-02-09T06:36:32.811Z,61.80
2023-02-09T06:38:59.447Z,96.00
2023-02-09T06:41:26.017Z,78.20
2023-02-09T06:43:52.513Z,76.88
2023-02-09T06:46:19.091Z,83.55
2023-02-09T06:48:45.671Z,57.65
2023-02-09T06:51:14.600Z,42.92
2023-02-09T06:53:42.728Z,53.53
2023-02-09T06:56:10.324Z,43.47
2023-02-09T06:58:38.290Z,66.43
2023-02-09T07:01:07.422Z,58.63
2023-02-09T07:03:34.195Z,53.78
2023-02-09T07:06:08.012Z,53.92
2023-02-09T07:08:35.599Z,35.72
2023-02-09T07:11:04.421Z,50.42
2023-02-09T07:13:32.022Z,43.72
2023-02-09T07:16:00.109Z,47.55
2023-02-09T07:18:27.279Z,44.15
2023-02-09T07:20:58.867Z,48.55
2023-02-09T07:23:25.570Z,28.83
2023-02-09T07:25:52.142Z,41.65
2023-02-09T07:28:22.605Z,36.20
2023-02-09T07:30:52.648Z,29.83
2023-02-09T07:33:20.405Z,33.15
2023-02-09T07:35:48.739Z,31.77
2023-02-09T07:38:15.532Z,22.50
2023-02-09T07:40:46.636Z,24.30
2023-02-09T07:43:13.999Z,27.27
2023-02-09T07:45:41.377Z,20.42
2023-02-09T07:48:10.781Z,18.98
2023-02-09T07:50:37.631Z,18.25
2023-02-09T07:53:04.132Z,21.70
2023-02-09T07:55:30.640Z,20.58
2023-02-09T07:57:57.324Z,15.98
2023-02-09T08:00:24.447Z,18.83
2023-02-09T08:02:51.057Z,18.52
2023-02-09T08:05:25.645Z,16.23
2023-02-09T08:07:52.330Z,16.92
2023-02-09T08:10:19.282Z,17.85
2023-02-09T08:13:01.042Z,15.50
2023-02-09T08:15:34.861Z,20.20
2023-02-09T08:18:05.088Z,15.13
2023-02-09T08:20:32.394Z,15.80
2023-02-09T08:23:05.321Z,18.33
2023-02-09T08:25:32.644Z,14.75
2023-02-09T08:27:59.465Z,15.73
2023-02-09T08:30:26.132Z,17.95
2023-02-09T08:32:52.667Z,23.55
2023-02-09T08:35:19.213Z,16.92
2023-02-09T08:37:45.814Z,17.58
2023-02-09T08:40:12.619Z,10.85
2023-02-09T08:42:39.184Z,16.30
2023-02-09T08:45:06.009Z,11.32
2023-02-09T08:47:32.794Z,13.82
2023-02-09T08:49:59.427Z,14.45
2023-02-09T08:52:26.103Z,11.93
2023-02-09T08:54:52.597Z,18.02
2023-02-09T08:57:19.131Z,19.05
2023-02-09T08:59:45.639Z,15.65
2023-02-09T09:02:12.155Z,19.33
2023-02-09T09:04:38.643Z,17.95
2023-02-09T09:07:05.161Z,14.15
2023-02-09T09:09:31.655Z,19.05
2023-02-09T09:11:58.302Z,12.60
2023-02-09T09:14:26.639Z,13.40
2023-02-09T09:16:53.451Z,14.52
2023-02-09T09:19:20.194Z,13.75
2023-02-09T09:21:46.683Z,15.70
2023-02-09T09:24:13.256Z,15.00
2023-02-09T09:26:39.780Z,15.50
2023-02-09T09:29:06.314Z,11.63
2023-02-09T09:31:33.649Z,14.38
2023-02-09T09:34:00.265Z,14.88
2023-02-09T09:36:26.835Z,15.02
2023-02-09T09:38:54.801Z,12.57
2023-02-09T09:41:31.690Z,15.10
2023-02-09T09:43:59.049Z,14.20
2023-02-09T09:46:34.082Z,12.93
2023-02-09T09:49:01.080Z,11.57
2023-02-09T09:51:44.966Z,11.48
2023-02-09T09:54:19.361Z,15.70
2023-02-09T09:56:46.585Z,11.90
2023-02-09T09:59:30.577Z,17.52
2023-02-09T10:01:58.425Z,15.98
2023-02-09T10:04:24.945Z,13.52
2023-02-09T10:07:01.958Z,12.70
2023-02-09T10:10:10.454Z,12.82
2023-02-09T10:12:40.014Z,14.35
2023-02-09T10:15:25.293Z,15.07
2023-02-09T10:17:52.148Z,12.20
2023-02-09T10:20:38.168Z,12.13
2023-02-09T10:23:04.658Z,16.20
2023-02-09T10:25:50.155Z,13.40
2023-02-09T10:28:25.546Z,11.68
2023-02-09T10:30:55.265Z,12.63
2023-02-09T10:33:21.987Z,12.50
2023-02-09T10:35:54.641Z,15.18
2023-02-09T10:38:24.518Z,15.15
2023-02-09T10:40:51.654Z,16.42
2023-02-09T10:43:20.327Z,13.52
2023-02-09T10:45:52.499Z,13.30
2023-02-09T10:48:21.316Z,14.23
2023-02-09T10:51:07.371Z,12.77
2023-02-09T10:53:57.588Z,8.13
2023-02-09T10:56:27.418Z,12.18
2023-02-09T10:59:14.232Z,11.88
2023-02-09T11:01:42.976Z,10.27
2023-02-09T11:04:24.344Z,19.92
2023-02-09T11:07:03.467Z,13.07
2023-02-09T11:09:41.363Z,11.50
2023-02-09T11:12:11.696Z,13.27
2023-02-09T11:14:38.512Z,9.57
2023-02-09T11:17:15.758Z,14.10
2023-02-09T11:19:50.457Z,10.13
2023-02-09T11:22:29.884Z,11.35
2023-02-09T11:25:11.209Z,11.15
2023-02-09T11:27:46.804Z,17.77
2023-02-09T11:30:45.156Z,9.55
2023-02-09T11:33:58.798Z,12.02
2023-02-09T11:36:45.076Z,11.38
2023-02-09T11:39:26.372Z,12.88
2023-02-09T11:42:19.318Z,11.55
2023-02-09T11:45:02.752Z,10.48
2023-02-09T11:47:42.354Z,13.27
2023-02-09T11:50:15.204Z,11.70
2023-02-09T11:52:51.625Z,12.77
2023-02-09T11:55:48.866Z,10.65
2023-02-09T11:58:30.642Z,13.57
2023-02-09T12:01:15.726Z,10.38
2023-02-09T12:03:56.673Z,11.03
2023-02-09T12:06:24.815Z,11.73
2023-02-09T12:08:55.580Z,11.02
2023-02-09T12:11:37.989Z,8.88
2023-02-09T12:14:13.971Z,14.52
2023-02-09T12:16:46.751Z,12.35
2023-02-09T12:19:36.232Z,12.95
2023-02-09T12:22:33.728Z,11.07
2023-02-09T12:25:12.172Z,11.00
2023-02-09T12:27:43.731Z,13.23
2023-02-09T12:30:41.176Z,11.95
2023-02-09T12:33:22.928Z,10.88
2023-02-09T12:36:07.896Z,17.48
2023-02-09T12:38:56.772Z,11.90
2023-02-09T12:41:26.199Z,12.65
2023-02-09T12:44:06.023Z,9.82
2023-02-09T12:46:32.569Z,13.27
2023-02-09T12:49:11.585Z,16.65
2023-02-09T12:51:50.316Z,13.95
2023-02-09T12:54:40.401Z,10.32
2023-02-09T12:57:16.133Z,13.27
2023-02-09T12:59:52.694Z,16.08
2023-02-09T13:02:50.541Z,14.75
2023-02-09T13:05:38.098Z,10.07
2023-02-09T13:08:13.742Z,11.60
2023-02-09T13:10:55.232Z,12.57
2023-02-09T13:13:53.917Z,13.32
2023-02-09T13:16:29.583Z,13.85
2023-02-09T13:19:24.712Z,8.73
2023-02-09T13:22:14.034Z,15.70
2023-02-09T13:25:01.641Z,15.57
2023-02-09T13:27:29.548Z,19.45
2023-02-09T13:29:58.530Z,14.52
2023-02-09T13:32:49.614Z,15.90
2023-02-09T13:35:38.010Z,14.43
2023-02-09T13:38:16.118Z,11.65
2023-02-09T13:40:50.552Z,13.73
2023-02-09T13:43:29.554Z,14.57
2023-02-09T13:45:57.758Z,17.58
2023-02-09T13:48:36.634Z,11.05
2023-02-09T13:51:18.719Z,14.48
2023-02-09T13:54:02.535Z,11.07
2023-02-09T13:56:31.606Z,17.40
2023-02-09T13:58:58.531Z,16.33
2023-02-09T14:01:31.697Z,18.00
2023-02-09T14:04:11.721Z,16.15
2023-02-09T14:06:47.681Z,13.88
2023-02-09T14:09:20.588Z,16.38
2023-02-09T14:12:02.185Z,13.95
2023-02-09T14:14:53.728Z,14.35
2023-02-09T14:17:27.045Z,12.38
2023-02-09T14:19:55.696Z,17.73
2023-02-09T14:22:58.889Z,13.40
2023-02-09T14:25:26.960Z,17.27
2023-02-09T14:27:54.922Z,14.52
2023-02-09T14:30:26.163Z,12.60
2023-02-09T14:32:58.029Z,20.90
2023-02-09T14:35:30.307Z,13.68
2023-02-09T14:38:03.167Z,17.52
2023-02-09T14:40:32.154Z,17.70
2023-02-09T14:43:10.916Z,18.17
2023-02-09T14:45:44.500Z,17.73
2023-02-09T14:48:23.162Z,15.57
2023-02-09T14:50:54.740Z,19.00
2023-02-09T14:53:23.577Z,16.15
2023-02-09T14:55:50.213Z,14.93
2023-02-09T14:58:19.296Z,18.80
2023-02-09T15:00:46.126Z,15.75
2023-02-09T15:03:12.697Z,14.25
2023-02-09T15:05:39.414Z,18.30
2023-02-09T15:08:09.059Z,13.85
2023-02-09T15:10:38.063Z,17.27
2023-02-09T15:13:05.396Z,12.32
2023-02-09T15:15:33.416Z,15.38
2023-02-09T15:18:00.628Z,14.13
2023-02-09T15:20:28.886Z,18.35
2023-02-09T15:22:56.191Z,18.05
2023-02-09T15:25:24.202Z,20.02
2023-02-09T15:27:53.800Z,17.20
2023-02-09T15:30:26.424Z,16.75
2023-02-09T15:32:53.822Z,20.98
2023-02-09T15:35:23.456Z,15.18
2023-02-09T15:37:54.041Z,19.30
2023-02-09T15:40:51.968Z,20.02
2023-02-09T15:43:39.430Z,20.95
2023-02-09T15:46:25.524Z,17.52
2023-02-09T15:48:52.124Z,20.58
2023-02-09T15:51:19.377Z,19.35
2023-02-09T15:53:46.943Z,16.38
2023-02-09T15:56:14.805Z,20.05
2023-02-09T15:58:44.867Z,19.13
2023-02-09T16:01:14.498Z,19.95
2023-02-09T16:03:41.087Z,15.10
2023-02-09T16:06:22.025Z,24.35
2023-02-09T16:08:50.259Z,19.23
2023-02-09T16:11:24.502Z,17.75
2023-02-09T16:13:51.379Z,19.75
2023-02-09T16:16:18.190Z,18.80
2023-02-09T16:18:47.018Z,20.73
2023-02-09T16:21:26.447Z,22.33
2023-02-09T16:23:55.832Z,21.55
2023-02-09T16:26:24.415Z,22.25
2023-02-09T16:28:54.299Z,32.60
2023-02-09T16:31:21.439Z,23.02
2023-02-09T16:33:48.911Z,28.70
2023-02-09T16:36:23.633Z,17.63
2023-02-09T16:38:50.660Z,17.80
2023-02-09T16:41:37.689Z,20.25
2023-02-09T16:44:17.937Z,21.85
2023-02-09T16:46:47.117Z,23.90
2023-02-09T16:49:33.107Z,28.45
2023-02-09T16:52:15.158Z,21.55
2023-02-09T16:54:45.887Z,26.15
2023-02-09T16:57:15.601Z,25.13
2023-02-09T16:59:42.437Z,27.58
2023-02-09T17:02:34.110Z,22.05
2023-02-09T17:05:02.586Z,23.20
2023-02-09T17:07:45.420Z,21.48
2023-02-09T17:10:23.200Z,25.00
2023-02-09T17:12:51.965Z,15.70
2023-02-09T17:15:29.405Z,19.52
2023-02-09T17:18:02.103Z,30.48
2023-02-09T17:20:35.566Z,22.95
2023-02-09T17:23:02.081Z,21.13
2023-02-09T17:25:28.683Z,25.13
2023-02-09T17:27:55.279Z,30.83
2023-02-09T17:30:21.807Z,26.02
2023-02-09T17:32:55.073Z,35.05
2023-02-09T17:35:41.045Z,27.77
2023-02-09T17:38:22.756Z,32.08
2023-02-09T17:40:51.027Z,24.13
2023-02-09T17:43:17.738Z,23.48
2023-02-09T17:45:49.480Z,26.05
2023-02-09T17:48:20.281Z,20.58
2023-02-09T17:50:49.093Z,20.98
2023-02-09T17:53:20.066Z,24.17
2023-02-09T17:55:47.989Z,22.02
2023-02-09T17:58:15.450Z,23.52
2023-02-09T18:00:43.626Z,28.23
2023-02-09T18:03:18.332Z,18.58
2023-02-09T18:05:47.291Z,22.20
2023-02-09T18:08:13.965Z,25.83
2023-02-09T18:10:40.495Z,21.35
2023-02-09T18:13:07.015Z,27.83
2023-02-09T18:15:36.494Z,35.35
2023-02-09T18:18:04.177Z,23.13
2023-02-09T18:20:33.704Z,18.50
2023-02-09T18:23:04.468Z,23.00
2023-02-09T18:25:34.979Z,30.75
2023-02-09T18:28:02.575Z,23.80
2023-02-09T18:30:32.588Z,28.35
2023-02-09T18:33:00.129Z,27.50
2023-02-09T18:35:39.905Z,26.67
2023-02-09T18:38:09.096Z,25.08
2023-02-09T18:40:36.579Z,14.90
2023-02-09T18:43:06.436Z,25.27
2023-02-09T18:45:33.092Z,17.25
2023-02-09T18:48:00.361Z,19.88
2023-02-09T18:50:29.845Z,23.45
2023-02-09T18:52:59.131Z,17.85
2023-02-09T18:55:30.982Z,28.58
2023-02-09T18:57:59.748Z,26.30
2023-02-09T19:00:26.678Z,33.53
2023-02-09T19:02:57.496Z,36.15
2023-02-09T19:05:30.311Z,31.25
2023-02-09T19:07:57.157Z,32.10
2023-02-09T19:10:24.406Z,33.83
2023-02-09T19:12:51.974Z,32.92
2023-02-09T19:15:19.458Z,33.65
2023-02-09T19:17:46.197Z,40.42
2023-02-09T19:20:17.154Z,44.15
2023-02-09T19:22:43.705Z,38.75
2023-02-09T19:25:10.267Z,35.15
2023-02-09T19:27:37.858Z,36.88
2023-02-09T19:30:05.024Z,36.53
2023-02-09T19:32:31.780Z,35.55
2023-02-09T19:34:58.452Z,37.50
2023-02-09T19:37:25.095Z,37.17
2023-02-09T19:40:04.138Z,41.00
2023-02-09T19:42:34.488Z,44.22
2023-02-09T19:45:01.002Z,31.20
2023-02-09T19:47:27.961Z,29.92
2023-02-09T19:49:56.699Z,33.63
2023-02-09T19:52:23.955Z,36.90
2023-02-09T19:54:50.909Z,29.85
2023-02-09T19:57:19.079Z,30.30
2023-02-09T19:59:45.931Z,34.15
2023-02-09T20:02:16.270Z,34.85
2023-02-09T20:04:45.594Z,34.38
2023-02-09T20:07:14.046Z,34.92
2023-02-09T20:09:40.852Z,34.22
2023-02-09T20:12:07.378Z,25.55
2023-02-09T20:14:34.029Z,21.55
2023-02-09T20:17:00.827Z,21.77
2023-02-09T20:19:27.724Z,22.30
2023-02-09T20:21:54.236Z,21.52
2023-02-09T20:24:21.008Z,21.65
2023-02-09T20:26:49.052Z,20.08
2023-02-09T20:29:16.871Z,19.05
2023-02-09T20:31:43.642Z,21.10
2023-02-09T20:34:13.674Z,18.38
2023-02-09T20:36:43.353Z,17.25
2023-02-09T20:39:13.460Z,19.50
2023-02-09T20:42:00.005Z,19.73
2023-02-09T20:47:17.792Z,17.27
2023-02-09T20:49:44.812Z,21.65
2023-02-09T20:52:11.438Z,18.73
2023-02-09T20:54:37.956Z,15.07
2023-02-09T20:57:04.964Z,15.43
2023-02-09T20:59:31.832Z,19.50
2023-02-09T21:04:30.405Z,16.70
2023-02-09T21:06:57.825Z,15.57
2023-02-09T21:09:26.634Z,16.80
2023-02-09T21:11:54.340Z,19.50
2023-02-09T21:14:27.954Z,17.33
2023-02-09T21:17:05.637Z,16.02
2023-02-09T21:19:34.275Z,18.77
2023-02-09T21:22:00.804Z,15.43
2023-02-09T21:24:27.350Z,16.38
2023-02-09T21:26:53.927Z,15.75
2023-02-09T21:29:20.590Z,23.13
2023-02-09T21:31:47.205Z,19.70
2023-02-09T21:34:15.888Z,20.23
2023-02-09T21:36:43.125Z,14.02
2023-02-09T21:39:09.687Z,19.10
2023-02-09T21:41:54.849Z,15.35
2023-02-09T21:44:21.355Z,21.45
2023-02-09T21:46:49.492Z,18.92
2023-02-09T21:49:16.398Z,19.60
2023-02-09T21:51:43.220Z,17.08
2023-02-09T21:54:17.354Z,17.45
2023-02-09T21:56:44.676Z,19.85
2023-02-09T21:59:11.222Z,20.67
2023-02-09T22:01:38.119Z,17.60
2023-02-09T22:04:05.070Z,20.52
2023-02-09T22:06:31.905Z,16.33
2023-02-09T22:09:00.503Z,18.83
2023-02-09T22:11:27.101Z,20.27
2023-02-09T22:13:53.669Z,17.85
2023-02-09T22:16:21.898Z,19.85
2023-02-09T22:18:48.447Z,17.33
2023-02-09T22:21:15.141Z,19.45
2023-02-09T22:23:42.181Z,15.40
2023-02-09T22:26:09.869Z,18.70
2023-02-09T22:28:36.822Z,20.38
2023-02-09T22:31:12.268Z,20.02
2023-02-09T22:33:39.377Z,25.63
2023-02-09T22:36:13.025Z,17.40
2023-02-09T22:38:40.188Z,17.35
2023-02-09T22:41:21.612Z,21.60
2023-02-09T22:43:50.122Z,21.88
2023-02-09T22:48:52.479Z,22.77
2023-02-09T22:51:19.464Z,20.98
2023-02-09T22:53:46.128Z,22.92
2023-02-09T22:56:13.594Z,23.60
2023-02-09T22:58:40.464Z,23.58
2023-02-09T23:01:07.709Z,23.23
2023-02-09T23:03:34.434Z,23.52
2023-02-09T23:06:05.921Z,24.65
2023-02-09T23:08:32.828Z,20.35
2023-02-09T23:11:08.926Z,29.00
2023-02-09T23:13:37.146Z,26.80
2023-02-09T23:16:18.239Z,23.20
2023-02-09T23:18:56.529Z,21.33
2023-02-09T23:21:26.362Z,26.42
2023-02-09T23:23:53.516Z,22.15
2023-02-09T23:26:20.896Z,18.02
2023-02-09T23:28:47.606Z,22.90
2023-02-09T23:31:19.186Z,24.35
2023-02-09T23:33:45.809Z,21.88
2023-02-09T23:36:16.530Z,20.85
2023-02-09T23:38:45.099Z,19.05
2023-02-09T23:43:49.111Z,23.67
2023-02-09T23:46:19.042Z,21.42
2023-02-09T23:48:46.475Z,21.35
2023-02-09T23:51:18.486Z,20.38
2023-02-09T23:53:46.148Z,20.95
2023-02-09T23:56:13.989Z,20.33
2023-02-09T23:58:43.731Z,21.48
